Time;durP1;ratioP1;P1;durP2;ratioP2;P2;SDS_P1;SDS_P2;PMS_P1;PMS_P2;Temp;Humidity;BMP_temperature;BMP_pressure;BME280_temperature;BME280_humidity;BME280_pressure;Samples;Min_cycle;Max_cycle;Signal;HPM_P1;HPM_P2
2023/12/01 00:01:17;;;;;;;50.17;25.33;;;2.10;99.90;;;;;;5053851;28;20053;-65
2023/12/01 00:03:43;;;;;;;50.40;26.17;;;2.10;99.90;;;;;;5053115;28;20052;-67
2023/12/01 00:06:09;;;;;;;54.97;27.45;;;2.10;99.90;;;;;;5053904;28;20465;-67
2023/12/01 00:08:34;;;;;;;50.53;25.10;;;2.10;99.90;;;;;;5053765;28;20098;-66
2023/12/01 00:11:00;;;;;;;56.80;26.88;;;2.10;99.90;;;;;;5053217;28;20099;-66
2023/12/01 00:13:26;;;;;;;51.97;24.40;;;2.10;99.90;;;;;;5053550;28;20079;-66
2023/12/01 00:15:51;;;;;;;54.30;25.23;;;2.10;99.90;;;;;;5053054;28;20037;-67
2023/12/01 00:18:17;;;;;;;44.17;24.38;;;2.10;99.90;;;;;;5040076;28;20097;-67
2023/12/01 00:20:43;;;;;;;50.65;23.70;;;2.10;99.90;;;;;;5032823;28;20030;-67
2023/12/01 00:23:08;;;;;;;48.35;23.67;;;2.10;99.90;;;;;;5033837;28;20052;-66
2023/12/01 00:25:34;;;;;;;46.83;22.65;;;2.10;99.90;;;;;;5034657;28;20021;-66
2023/12/01 00:28:00;;;;;;;47.25;24.73;;;2.10;99.90;;;;;;5033885;28;20090;-66
2023/12/01 00:30:29;;;;;;;49.50;23.83;;;2.10;99.90;;;;;;5035057;28;20025;-66
2023/12/01 00:32:55;;;;;;;45.60;24.60;;;2.10;99.90;;;;;;5034594;28;20041;-66
2023/12/01 00:35:21;;;;;;;49.53;23.10;;;2.10;99.90;;;;;;5037010;28;20024;-66
2023/12/01 00:37:47;;;;;;;49.00;24.15;;;2.10;99.90;;;;;;5053760;28;20143;-66
2023/12/01 00:40:12;;;;;;;48.63;23.77;;;2.10;99.90;;;;;;5054567;28;20029;-66
2023/12/01 00:42:38;;;;;;;54.05;23.88;;;2.10;99.90;;;;;;5053778;28;20052;-66
2023/12/01 00:45:05;;;;;;;52.53;24.65;;;2.10;99.90;;;;;;5052924;28;20531;-66
2023/12/01 00:47:31;;;;;;;48.00;22.98;;;2.10;99.90;;;;;;5053154;28;20037;-65
2023/12/01 00:49:56;;;;;;;49.63;24.02;;;2.10;99.90;;;;;;5052913;28;20037;-66
2023/12/01 00:52:22;;;;;;;50.63;24.10;;;2.10;99.90;;;;;;5052980;28;20033;-65
2023/12/01 00:54:48;;;;;;;50.85;24.63;;;2.10;99.90;;;;;;5051374;28;20113;-66
2023/12/01 00:57:13;;;;;;;49.70;24.13;;;2.10;99.90;;;;;;5052326;28;20457;-65
2023/12/01 00:59:39;;;;;;;47.45;24.23;;;2.10;99.90;;;;;;5052383;28;20091;-65
2023/12/01 01:02:04;;;;;;;51.05;24.67;;;2.10;99.90;;;;;;5052721;28;20068;-66
2023/12/01 01:04:30;;;;;;;44.80;23.10;;;2.10;99.90;;;;;;5052602;28;20025;-65
2023/12/01 01:06:55;;;;;;;46.97;24.95;;;2.10;99.90;;;;;;5052438;28;20025;-67
2023/12/01 01:09:21;;;;;;;47.80;23.02;;;2.10;99.90;;;;;;5052578;28;20129;-66
2023/12/01 01:11:47;;;;;;;44.13;22.92;;;2.10;99.90;;;;;;5052330;28;20021;-66
2023/12/01 01:14:12;;;;;;;45.20;24.15;;;2.10;99.90;;;;;;5052358;28;20400;-65
2023/12/01 01:16:38;;;;;;;47.22;22.75;;;2.10;99.90;;;;;;5052881;28;20079;-66
2023/12/01 01:19:04;;;;;;;49.25;22.73;;;2.10;99.90;;;;;;5052259;28;20060;-67
2023/12/01 01:21:29;;;;;;;43.65;22.15;;;2.10;99.90;;;;;;5051443;28;20454;-67
2023/12/01 01:23:55;;;;;;;45.55;23.95;;;2.10;99.90;;;;;;5051838;28;20063;-65
2023/12/01 01:26:21;;;;;;;49.08;24.55;;;2.10;99.90;;;;;;5052192;28;20039;-65
2023/12/01 01:28:47;;;;;;;54.20;26.17;;;2.10;99.90;;;;;;5051833;28;20474;-68
2023/12/01 01:31:13;;;;;;;51.40;25.30;;;2.10;99.90;;;;;;5052168;28;20025;-66
2023/12/01 01:33:38;;;;;;;53.33;26.25;;;2.10;99.90;;;;;;5052414;28;20053;-66
2023/12/01 01:36:04;;;;;;;60.63;26.52;;;2.10;99.90;;;;;;5051615;28;20037;-65
2023/12/01 01:38:30;;;;;;;50.90;24.67;;;2.10;99.90;;;;;;5052183;28;20032;-66
2023/12/01 01:40:55;;;;;;;48.78;24.20;;;2.10;99.90;;;;;;5051943;28;20025;-66
2023/12/01 01:43:24;;;;;;;53.10;24.88;;;2.10;99.90;;;;;;5052311;28;20116;-66
2023/12/01 01:46:05;;;;;;;50.92;25.00;;;2.20;99.90;;;;;;5052016;28;20043;-67
2023/12/01 01:48:32;;;;;;;56.42;27.10;;;2.20;99.90;;;;;;5052647;28;20094;-67
2023/12/01 01:50:58;;;;;;;56.40;25.05;;;2.20;99.90;;;;;;5051942;28;20060;-66
2023/12/01 01:53:25;;;;;;;52.03;25.42;;;2.10;99.90;;;;;;5052298;28;20033;-66
2023/12/01 01:55:51;;;;;;;53.88;25.45;;;2.10;99.90;;;;;;5051814;28;20041;-66
2023/12/01 01:58:16;;;;;;;55.25;26.70;;;2.10;99.90;;;;;;5052275;28;20373;-65
2023/12/01 02:00:49;;;;;;;55.65;25.15;;;2.20;99.90;;;;;;5052267;28;20029;-66
2023/12/01 02:03:16;;;;;;;55.60;25.40;;;2.20;99.90;;;;;;5052137;28;20112;-66
2023/12/01 02:05:42;;;;;;;53.50;26.73;;;2.20;99.90;;;;;;5052433;28;20380;-66
2023/12/01 02:08:24;;;;;;;52.65;24.88;;;2.20;99.90;;;;;;5053129;28;20108;-66
2023/12/01 02:10:51;;;;;;;53.85;25.80;;;2.20;99.90;;;;;;5056212;28;20051;-67
2023/12/01 02:13:18;;;;;;;55.70;26.42;;;2.20;99.90;;;;;;5055825;28;20462;-66
2023/12/01 02:15:44;;;;;;;53.17;25.67;;;2.20;99.90;;;;;;5054619;28;20044;-66
2023/12/01 02:18:26;;;;;;;53.88;27.52;;;2.20;99.90;;;;;;5055062;28;20029;-66
2023/12/01 02:20:53;;;;;;;51.38;24.77;;;2.20;99.90;;;;;;5055312;28;20021;-66
2023/12/01 02:23:20;;;;;;;50.58;24.90;;;2.20;99.90;;;;;;5055678;28;20466;-66
2023/12/01 02:25:46;;;;;;;45.13;23.92;;;2.20;99.90;;;;;;5055587;28;20107;-65
2023/12/01 02:28:13;;;;;;;46.03;24.60;;;2.20;99.90;;;;;;5055227;28;20086;-66
2023/12/01 02:30:39;;;;;;;49.30;24.73;;;2.20;99.90;;;;;;5055268;28;20553;-66
2023/12/01 02:33:05;;;;;;;52.35;25.63;;;2.20;99.90;;;;;;5054871;28;20025;-65
2023/12/01 02:35:31;;;;;;;54.10;24.05;;;2.20;99.90;;;;;;5054968;28;20345;-65
2023/12/01 02:37:57;;;;;;;54.47;25.95;;;2.20;99.90;;;;;;5055055;28;20033;-67
2023/12/01 02:40:24;;;;;;;48.10;24.20;;;2.20;99.90;;;;;;5055372;28;20104;-65
2023/12/01 02:42:51;;;;;;;45.25;24.70;;;2.20;99.90;;;;;;5055261;28;20381;-65
2023/12/01 02:45:18;;;;;;;45.80;24.85;;;2.20;99.90;;;;;;5054810;28;20033;-65
2023/12/01 02:47:47;;;;;;;49.30;24.05;;;2.20;99.90;;;;;;5055228;28;20032;-65
2023/12/01 02:50:19;;;;;;;45.63;24.70;;;2.20;99.90;;;;;;5054717;28;20381;-65
2023/12/01 02:52:44;;;;;;;45.08;23.27;;;2.20;99.90;;;;;;5055095;28;20028;-67
2023/12/01 02:55:11;;;;;;;51.72;25.85;;;2.20;99.90;;;;;;5054694;28;20033;-67
2023/12/01 02:57:39;;;;;;;49.92;24.27;;;2.20;99.90;;;;;;5055021;28;20033;-65
2023/12/01 03:00:13;;;;;;;47.08;25.15;;;2.20;99.90;;;;;;5054816;28;20064;-66
2023/12/01 03:02:42;;;;;;;48.80;25.17;;;2.30;99.90;;;;;;5054943;28;20472;-66
2023/12/01 03:05:09;;;;;;;47.47;24.45;;;2.20;99.90;;;;;;5054171;28;20048;-66
2023/12/01 03:07:39;;;;;;;44.83;24.30;;;2.20;99.90;;;;;;5054944;28;20055;-66
2023/12/01 03:10:09;;;;;;;48.28;24.55;;;2.30;99.90;;;;;;5054559;28;20108;-66
2023/12/01 03:12:38;;;;;;;47.88;24.10;;;2.30;99.90;;;;;;5054517;28;20187;-66
2023/12/01 03:15:08;;;;;;;49.53;25.05;;;2.30;99.90;;;;;;5054041;28;20029;-66
2023/12/01 03:17:33;;;;;;;47.92;25.30;;;2.30;99.90;;;;;;5054189;28;20129;-66
2023/12/01 03:19:59;;;;;;;51.85;24.67;;;2.30;99.90;;;;;;5053525;28;20053;-66
2023/12/01 03:22:25;;;;;;;46.90;24.38;;;2.20;99.90;;;;;;5054333;28;20049;-66
2023/12/01 03:24:53;;;;;;;45.50;23.95;;;2.20;99.90;;;;;;5054475;28;20378;-66
2023/12/01 03:27:19;;;;;;;46.72;24.05;;;2.20;99.90;;;;;;5054060;28;20108;-66
2023/12/01 03:29:45;;;;;;;47.42;24.85;;;2.20;99.90;;;;;;5054451;28;20351;-66
2023/12/01 03:32:11;;;;;;;49.03;24.80;;;2.20;99.90;;;;;;5054049;28;20052;-66
2023/12/01 03:34:37;;;;;;;45.88;24.92;;;2.20;99.90;;;;;;5054617;28;20524;-65
2023/12/01 03:37:03;;;;;;;54.40;26.08;;;2.20;99.90;;;;;;5053765;28;20478;-65
2023/12/01 03:39:30;;;;;;;46.83;25.55;;;2.20;99.90;;;;;;5054433;28;20021;-66
2023/12/01 03:41:55;;;;;;;45.97;24.90;;;2.20;99.90;;;;;;5054268;28;20025;-65
2023/12/01 03:44:21;;;;;;;45.70;24.52;;;2.20;99.90;;;;;;5053809;28;20544;-65
2023/12/01 03:46:47;;;;;;;46.38;24.80;;;2.20;99.90;;;;;;5054068;28;20090;-66
2023/12/01 03:49:13;;;;;;;50.33;24.23;;;2.20;99.90;;;;;;5053692;28;20033;-67
2023/12/01 03:51:39;;;;;;;49.33;25.42;;;2.30;99.90;;;;;;5053753;28;20381;-67
2023/12/01 03:54:04;;;;;;;49.00;24.35;;;2.30;99.90;;;;;;5053377;28;20025;-66
2023/12/01 03:56:30;;;;;;;47.45;24.27;;;2.30;99.90;;;;;;5054083;28;20270;-66
2023/12/01 03:58:56;;;;;;;45.03;24.50;;;2.30;99.90;;;;;;5053714;28;20463;-65
2023/12/01 04:01:23;;;;;;;47.42;25.45;;;2.30;99.90;;;;;;5053426;28;20025;-66
2023/12/01 04:03:48;;;;;;;53.53;25.60;;;2.30;99.90;;;;;;5053883;28;20108;-66
2023/12/01 04:06:14;;;;;;;52.55;25.73;;;2.30;99.90;;;;;;5053132;28;20227;-67
2023/12/01 04:08:40;;;;;;;56.13;26.83;;;2.30;99.90;;;;;;5053746;28;20445;-65
2023/12/01 04:11:06;;;;;;;55.95;27.45;;;2.30;99.90;;;;;;5053292;28;20021;-67
2023/12/01 04:13:32;;;;;;;61.20;28.48;;;2.30;99.90;;;;;;5053598;28;20029;-65
2023/12/01 04:15:58;;;;;;;58.20;29.00;;;2.30;99.90;;;;;;5053481;28;20515;-65
2023/12/01 04:18:27;;;;;;;60.72;29.00;;;2.30;99.90;;;;;;5053049;28;20029;-66
2023/12/01 04:20:53;;;;;;;59.42;28.50;;;2.30;99.90;;;;;;5053709;28;20112;-65
2023/12/01 04:23:19;;;;;;;64.25;29.77;;;2.30;99.90;;;;;;5053312;28;20025;-65
2023/12/01 04:25:46;;;;;;;66.10;30.73;;;2.30;99.90;;;;;;5053258;28;20529;-65
2023/12/01 04:28:13;;;;;;;62.90;30.20;;;2.30;99.90;;;;;;5052877;28;20060;-65
2023/12/01 04:30:40;;;;;;;67.15;30.38;;;2.30;99.90;;;;;;5052614;28;20021;-67
2023/12/01 04:33:06;;;;;;;59.90;28.08;;;2.20;99.90;;;;;;5052325;28;20029;-65
2023/12/01 04:35:34;;;;;;;65.05;29.23;;;2.20;99.90;;;;;;5053212;28;20021;-66
2023/12/01 04:38:03;;;;;;;59.92;29.40;;;2.20;99.90;;;;;;5053146;28;20052;-65
2023/12/01 04:40:29;;;;;;;66.53;30.92;;;2.20;99.90;;;;;;5053013;28;20040;-66
2023/12/01 04:42:57;;;;;;;62.85;29.85;;;2.20;99.90;;;;;;5052294;28;20029;-67
2023/12/01 04:45:27;;;;;;;60.67;29.42;;;2.20;99.90;;;;;;5052641;28;20136;-66
2023/12/01 04:47:55;;;;;;;65.63;31.55;;;2.20;99.90;;;;;;5053329;28;20033;-67
2023/12/01 04:50:25;;;;;;;67.85;31.02;;;2.20;99.90;;;;;;5052806;28;20041;-67
2023/12/01 04:52:53;;;;;;;65.43;30.58;;;2.20;99.90;;;;;;5053042;28;20040;-66
2023/12/01 04:55:20;;;;;;;68.03;32.10;;;2.20;99.90;;;;;;5052436;28;20029;-66
2023/12/01 04:57:47;;;;;;;66.88;31.02;;;2.20;99.90;;;;;;5052712;28;20029;-65
2023/12/01 05:00:21;;;;;;;72.53;32.90;;;2.20;99.90;;;;;;5052653;28;20171;-66
2023/12/01 05:02:54;;;;;;;68.72;31.65;;;2.20;99.90;;;;;;5052721;28;20528;-67
2023/12/01 05:05:21;;;;;;;71.38;32.13;;;2.20;99.90;;;;;;5051924;28;20498;-66
2023/12/01 05:07:50;;;;;;;69.75;32.80;;;2.20;99.90;;;;;;5052757;28;20409;-65
2023/12/01 05:10:20;;;;;;;71.65;34.13;;;2.10;99.90;;;;;;5052332;28;20133;-67
2023/12/01 05:12:51;;;;;;;70.82;32.70;;;2.10;99.90;;;;;;5052130;28;20481;-66
2023/12/01 05:15:19;;;;;;;75.72;34.28;;;2.20;99.90;;;;;;5052286;28;20033;-67
2023/12/01 05:17:49;;;;;;;75.57;34.22;;;2.10;99.90;;;;;;5052438;28;20122;-66
2023/12/01 05:20:16;;;;;;;74.03;33.47;;;2.10;99.90;;;;;;5052143;28;20029;-66
2023/12/01 05:22:50;;;;;;;77.82;33.20;;;2.20;99.90;;;;;;5052428;28;20039;-65
2023/12/01 05:25:17;;;;;;;69.55;32.63;;;2.20;99.90;;;;;;5051458;28;20106;-65
2023/12/01 05:27:50;;;;;;;70.15;34.10;;;2.10;99.90;;;;;;5052613;28;20125;-66
2023/12/01 05:30:21;;;;;;;73.65;32.33;;;2.20;99.90;;;;;;5051972;28;20029;-65
2023/12/01 05:32:48;;;;;;;75.28;34.70;;;2.20;99.90;;;;;;5052211;28;20025;-66
2023/12/01 05:35:15;;;;;;;77.97;34.70;;;2.20;99.90;;;;;;5052059;28;20371;-67
2023/12/01 05:37:46;;;;;;;75.82;33.75;;;2.20;99.90;;;;;;5052268;28;20041;-66
2023/12/01 05:40:14;;;;;;;78.93;34.83;;;2.20;99.90;;;;;;5052073;28;20070;-66
2023/12/01 05:42:41;;;;;;;78.35;35.97;;;2.20;99.90;;;;;;5052990;28;20067;-66
2023/12/01 05:45:11;;;;;;;69.95;33.97;;;2.20;99.90;;;;;;5056299;28;20040;-71
2023/12/01 05:47:42;;;;;;;79.85;34.95;;;2.20;99.90;;;;;;5056541;28;20033;-66
2023/12/01 05:50:12;;;;;;;;;;;2.20;99.90;;;;;;5056496;28;20051;-68
2023/12/01 05:52:38;;;;;;;84.75;36.85;;;2.20;99.90;;;;;;5056263;28;20337;-66
2023/12/01 05:55:10;;;;;;;82.20;37.17;;;2.20;99.90;;;;;;5056144;28;20032;-66
2023/12/01 05:57:36;;;;;;;79.32;36.03;;;2.20;99.90;;;;;;5056215;28;20041;-66
2023/12/01 06:00:02;;;;;;;80.75;34.72;;;2.20;99.90;;;;;;5055698;28;20176;-66
2023/12/01 06:02:28;;;;;;;77.43;36.28;;;2.20;99.90;;;;;;5055456;28;20055;-66
2023/12/01 06:04:57;;;;;;;78.95;35.17;;;2.20;99.90;;;;;;5056139;28;20021;-65
2023/12/01 06:07:23;;;;;;;75.88;34.83;;;2.20;99.90;;;;;;5055561;28;20102;-66
2023/12/01 06:09:48;;;;;;;73.05;34.85;;;2.20;99.90;;;;;;5055988;28;20449;-66
2023/12/01 06:12:14;;;;;;;76.90;34.17;;;2.20;99.90;;;;;;5055226;28;20108;-66
2023/12/01 06:14:40;;;;;;;79.55;35.13;;;2.20;99.90;;;;;;5055924;28;20032;-66
2023/12/01 06:17:07;;;;;;;72.40;36.15;;;2.20;99.90;;;;;;5055457;28;20037;-66
2023/12/01 06:19:32;;;;;;;82.82;36.45;;;2.20;99.90;;;;;;5055944;28;20025;-66
2023/12/01 06:21:58;;;;;;;72.85;34.53;;;2.20;99.90;;;;;;5055935;28;20108;-66
2023/12/01 06:24:24;;;;;;;81.68;36.33;;;2.20;99.90;;;;;;5056664;28;20064;-65
2023/12/01 06:26:52;;;;;;;87.70;37.53;;;2.20;99.90;;;;;;5056899;28;20466;-66
2023/12/01 06:29:18;;;;;;;74.13;36.05;;;2.20;99.90;;;;;;5057620;28;20389;-67
2023/12/01 06:31:44;;;;;;;74.43;36.70;;;2.20;99.90;;;;;;5058156;28;20088;-66
2023/12/01 06:34:10;;;;;;;78.93;37.00;;;2.20;99.90;;;;;;5055554;28;20037;-66
2023/12/01 06:36:35;;;;;;;77.05;36.00;;;2.20;99.90;;;;;;5055199;28;20041;-66
2023/12/01 06:39:10;;;;;;;77.95;38.17;;;2.20;99.90;;;;;;5055486;28;20083;-65
2023/12/01 06:41:36;;;;;;;72.68;36.42;;;2.20;99.90;;;;;;5054497;28;20025;-66
2023/12/01 06:44:02;;;;;;;76.00;35.30;;;2.20;99.90;;;;;;5055305;28;20021;-66
2023/12/01 06:46:28;;;;;;;79.53;37.17;;;2.20;99.90;;;;;;5054567;28;20033;-66
2023/12/01 06:48:53;;;;;;;80.35;38.85;;;2.20;99.90;;;;;;5055060;28;20021;-66
2023/12/01 06:51:19;;;;;;;81.00;39.30;;;2.20;99.90;;;;;;5055054;28;20025;-65
2023/12/01 06:53:44;;;;;;;84.03;40.40;;;2.20;99.90;;;;;;5054569;28;20033;-65
2023/12/01 06:56:10;;;;;;;85.00;40.13;;;2.30;99.90;;;;;;5054359;28;20043;-65
2023/12/01 06:58:36;;;;;;;83.32;38.50;;;2.20;99.90;;;;;;5054345;28;20103;-67
2023/12/01 07:01:01;;;;;;;83.88;37.78;;;2.20;99.90;;;;;;5054778;28;20029;-65
2023/12/01 07:03:29;;;;;;;78.72;37.92;;;2.30;99.90;;;;;;5054285;28;20100;-65
2023/12/01 07:05:55;;;;;;;82.43;38.60;;;2.20;99.90;;;;;;5054827;28;20048;-66
2023/12/01 07:08:21;;;;;;;83.20;39.20;;;2.30;99.90;;;;;;5054473;28;20025;-66
2023/12/01 07:10:47;;;;;;;92.28;41.20;;;2.30;99.90;;;;;;5054574;28;20104;-66
2023/12/01 07:13:13;;;;;;;81.72;38.65;;;2.20;99.90;;;;;;5054402;28;20075;-67
2023/12/01 07:15:38;;;;;;;86.82;39.42;;;2.20;99.90;;;;;;5053606;28;20438;-66
2023/12/01 07:18:04;;;;;;;85.68;38.10;;;2.30;99.90;;;;;;5054658;28;20056;-66
2023/12/01 07:20:33;;;;;;;83.20;38.38;;;2.30;99.90;;;;;;5053854;28;20025;-66
2023/12/01 07:22:59;;;;;;;86.75;38.92;;;2.30;99.90;;;;;;5047848;28;20030;-67
2023/12/01 07:25:25;;;;;;;82.93;37.60;;;2.30;99.90;;;;;;5042459;28;20466;-66
2023/12/01 07:27:58;;;;;;;85.38;39.63;;;2.30;99.90;;;;;;5034599;28;20492;-67
2023/12/01 07:30:24;;;;;;;85.03;38.80;;;2.30;99.90;;;;;;5034060;28;20400;-67
2023/12/01 07:32:53;;;;;;;80.22;37.47;;;2.30;99.90;;;;;;5034474;28;20029;-67
2023/12/01 07:35:18;;;;;;;79.47;37.58;;;2.30;99.90;;;;;;5034067;28;20025;-67
2023/12/01 07:37:46;;;;;;;85.25;39.83;;;2.30;99.90;;;;;;5034144;28;20037;-66
2023/12/01 07:40:19;;;;;;;85.55;38.95;;;2.30;99.90;;;;;;5034050;28;20031;-66
2023/12/01 07:42:45;;;;;;;86.35;40.30;;;2.40;99.90;;;;;;5037218;28;20032;-67
2023/12/01 07:45:17;;;;;;;90.78;40.72;;;2.40;99.90;;;;;;5044600;28;20029;-68
2023/12/01 07:47:46;;;;;;;91.30;39.55;;;2.40;99.90;;;;;;5036165;28;20037;-66
2023/12/01 07:50:14;;;;;;;93.15;41.03;;;2.40;99.90;;;;;;5034086;28;20040;-66
2023/12/01 07:52:50;;;;;;;94.13;39.80;;;2.40;99.90;;;;;;5033569;28;20034;-65
2023/12/01 07:55:16;;;;;;;94.95;41.08;;;2.40;99.90;;;;;;5033744;28;20440;-66
2023/12/01 07:57:42;;;;;;;88.65;40.30;;;2.50;99.90;;;;;;5033191;28;20044;-66
2023/12/01 08:00:14;;;;;;;86.70;39.97;;;2.50;99.90;;;;;;5033283;28;20049;-65
2023/12/01 08:02:40;;;;;;;91.30;40.55;;;2.50;99.90;;;;;;5033351;28;20039;-65
2023/12/01 08:05:13;;;;;;;81.57;37.08;;;2.50;99.90;;;;;;5033709;28;20030;-65
2023/12/01 08:07:40;;;;;;;80.38;36.80;;;2.50;99.90;;;;;;5033299;28;20174;-65
2023/12/01 08:10:06;;;;;;;79.57;37.40;;;2.50;99.90;;;;;;5033633;28;20052;-66
2023/12/01 08:12:32;;;;;;;83.65;37.80;;;2.50;99.90;;;;;;5033008;28;20026;-65
2023/12/01 08:14:58;;;;;;;86.25;40.38;;;2.50;99.90;;;;;;5033361;28;20072;-66
2023/12/01 08:17:24;;;;;;;93.47;37.90;;;2.50;99.90;;;;;;5033019;28;20087;-66
2023/12/01 08:19:50;;;;;;;79.45;38.78;;;2.60;99.90;;;;;;5033511;28;20108;-66
2023/12/01 08:22:17;;;;;;;88.28;37.30;;;2.60;99.90;;;;;;5033387;28;20029;-65
2023/12/01 08:24:42;;;;;;;77.40;36.63;;;2.60;99.90;;;;;;5032895;28;20569;-65
2023/12/01 08:27:08;;;;;;;84.93;38.05;;;2.60;99.90;;;;;;5033430;28;20025;-65
2023/12/01 08:29:33;;;;;;;76.80;36.90;;;2.60;99.90;;;;;;5032635;28;20134;-66
2023/12/01 08:32:00;;;;;;;87.00;37.78;;;2.60;99.90;;;;;;5033238;28;20022;-65
2023/12/01 08:34:25;;;;;;;86.57;38.13;;;2.60;99.90;;;;;;5039740;28;20024;-65
2023/12/01 08:36:51;;;;;;;86.10;38.83;;;2.70;99.90;;;;;;5053097;28;20033;-66
2023/12/01 08:39:16;;;;;;;82.93;36.35;;;2.70;99.90;;;;;;5051769;28;20021;-65
2023/12/01 08:41:42;;;;;;;81.78;36.42;;;2.70;99.90;;;;;;5052519;28;20087;-65
2023/12/01 08:44:08;;;;;;;83.30;36.83;;;2.70;99.90;;;;;;5052901;28;20430;-66
2023/12/01 08:46:33;;;;;;;85.45;36.67;;;2.70;99.90;;;;;;5052479;28;20044;-66
2023/12/01 08:48:59;;;;;;;74.78;35.35;;;2.80;99.90;;;;;;5052801;28;20136;-66
2023/12/01 08:51:25;;;;;;;72.97;35.38;;;2.80;99.90;;;;;;5052556;28;20474;-66
2023/12/01 08:53:51;;;;;;;73.55;34.65;;;2.80;99.90;;;;;;5052719;28;20343;-65
2023/12/01 08:56:16;;;;;;;72.93;34.30;;;2.80;99.90;;;;;;5052894;28;20040;-67
2023/12/01 08:58:42;;;;;;;76.57;36.38;;;2.80;99.90;;;;;;5052073;28;20422;-66
2023/12/01 09:01:08;;;;;;;74.00;34.85;;;2.80;99.90;;;;;;5052784;28;20036;-67
2023/12/01 09:03:33;;;;;;;74.68;33.70;;;2.80;99.90;;;;;;5052253;28;20025;-67
2023/12/01 09:06:03;;;;;;;73.53;34.85;;;2.80;99.90;;;;;;5052480;28;20033;-66
2023/12/01 09:08:29;;;;;;;72.78;33.55;;;2.80;99.90;;;;;;5051931;28;20496;-66
2023/12/01 09:10:54;;;;;;;67.57;33.55;;;2.80;99.90;;;;;;5052323;28;20025;-65
2023/12/01 09:13:20;;;;;;;66.90;31.67;;;2.80;99.90;;;;;;5052096;28;20021;-65
2023/12/01 09:15:45;;;;;;;69.63;31.13;;;2.80;99.90;;;;;;5051641;28;20045;-65
2023/12/01 09:18:11;;;;;;;67.28;30.58;;;2.80;99.90;;;;;;5051640;28;20056;-66
2023/12/01 09:20:37;;;;;;;66.43;30.90;;;2.90;99.90;;;;;;5052080;28;20576;-67
2023/12/01 09:23:03;;;;;;;61.13;30.58;;;2.80;99.90;;;;;;5052548;28;20059;-66
2023/12/01 09:25:29;;;;;;;67.22;30.40;;;2.90;99.90;;;;;;5052066;28;20533;-66
2023/12/01 09:27:54;;;;;;;57.78;28.38;;;2.90;99.90;;;;;;5051143;28;20055;-66
2023/12/01 09:30:20;;;;;;;59.92;28.95;;;2.90;99.90;;;;;;5052176;28;20499;-66
2023/12/01 09:32:46;;;;;;;67.68;31.48;;;2.90;99.90;;;;;;5051671;28;20033;-66
2023/12/01 09:35:11;;;;;;;62.45;30.35;;;2.90;99.90;;;;;;5052713;28;20071;-66
2023/12/01 09:37:37;;;;;;;62.05;28.08;;;2.90;99.90;;;;;;5051547;28;20505;-66
2023/12/01 09:40:03;;;;;;;58.92;29.20;;;2.90;99.90;;;;;;5051244;28;20025;-66
2023/12/01 09:42:32;;;;;;;62.47;29.30;;;2.90;99.90;;;;;;5051982;28;20098;-65
2023/12/01 09:45:00;;;;;;;66.78;32.25;;;2.90;99.90;;;;;;5052873;28;20025;-65
2023/12/01 09:47:29;;;;;;;68.90;29.33;;;2.90;99.90;;;;;;5052309;28;20029;-66
2023/12/01 09:49:55;;;;;;;60.95;30.05;;;2.90;99.90;;;;;;5052444;28;20051;-65
2023/12/01 09:52:21;;;;;;;59.47;30.30;;;2.90;99.90;;;;;;5052629;28;20059;-67
2023/12/01 09:54:46;;;;;;;59.25;29.08;;;2.90;99.90;;;;;;5051837;28;20513;-66
2023/12/01 09:57:12;;;;;;;58.65;29.05;;;2.90;99.90;;;;;;5052186;28;20389;-65
2023/12/01 09:59:38;;;;;;;61.28;28.85;;;2.90;99.90;;;;;;5051869;28;20068;-66
2023/12/01 10:02:04;;;;;;;57.97;28.83;;;2.80;99.90;;;;;;5052118;28;20025;-66
2023/12/01 10:04:31;;;;;;;53.65;27.45;;;2.80;99.90;;;;;;5051799;28;20033;-66
2023/12/01 10:06:57;;;;;;;52.55;26.75;;;2.80;99.90;;;;;;5052108;28;20064;-66
2023/12/01 10:09:32;;;;;;;62.17;29.15;;;2.80;99.90;;;;;;5052439;28;20033;-66
2023/12/01 10:12:08;;;;;;;57.25;27.70;;;2.90;99.90;;;;;;5052194;28;20021;-66
2023/12/01 10:14:35;;;;;;;54.15;26.80;;;2.90;99.90;;;;;;5051725;28;20029;-66
2023/12/01 10:17:05;;;;;;;55.38;27.23;;;2.90;99.90;;;;;;5051887;28;20041;-66
2023/12/01 10:19:32;;;;;;;52.08;26.23;;;2.90;99.90;;;;;;5051675;28;20104;-67
2023/12/01 10:21:58;;;;;;;58.83;28.83;;;2.90;99.90;;;;;;5052020;28;20028;-66
2023/12/01 10:24:24;;;;;;;55.60;27.23;;;2.90;99.90;;;;;;5051942;28;20386;-67
2023/12/01 10:26:54;;;;;;;57.40;28.50;;;2.90;99.90;;;;;;5051565;28;20048;-67
2023/12/01 10:29:30;;;;;;;58.73;28.47;;;2.90;99.90;;;;;;5053339;28;20028;-67
2023/12/01 10:32:04;;;;;;;56.72;27.50;;;2.90;99.90;;;;;;5053081;28;20265;-66
2023/12/01 10:34:30;;;;;;;54.53;27.02;;;2.90;99.90;;;;;;5055436;28;20108;-70
2023/12/01 10:36:56;;;;;;;50.35;25.92;;;2.90;99.90;;;;;;5055426;28;20033;-66
2023/12/01 10:39:24;;;;;;;58.22;26.33;;;2.90;99.90;;;;;;5055537;28;20025;-66
2023/12/01 10:41:50;;;;;;;52.35;25.58;;;2.90;99.90;;;;;;5055078;28;20032;-66
2023/12/01 10:44:19;;;;;;;53.25;25.25;;;2.90;99.90;;;;;;5055433;28;20029;-66
2023/12/01 10:46:48;;;;;;;53.47;25.83;;;2.90;99.90;;;;;;5056138;28;20025;-66
2023/12/01 10:49:17;;;;;;;49.05;24.08;;;2.90;99.90;;;;;;5057923;28;20533;-66
2023/12/01 10:51:45;;;;;;;48.53;24.98;;;2.90;99.90;;;;;;5057418;28;20029;-67
2023/12/01 10:54:12;;;;;;;42.92;22.52;;;2.90;99.90;;;;;;5055481;28;20036;-67
2023/12/01 10:57:06;;;;;;;42.17;22.13;;;2.90;99.90;;;;;;5054594;28;20489;-66
2023/12/01 10:59:34;;;;;;;46.25;23.48;;;2.90;99.90;;;;;;5052034;28;20411;-70
2023/12/01 11:02:00;;;;;;;49.72;24.90;;;2.90;99.90;;;;;;5054688;28;20029;-66
2023/12/01 11:04:26;;;;;;;59.17;25.48;;;2.90;99.90;;;;;;5054912;28;20024;-66
2023/12/01 11:07:01;;;;;;;60.15;27.13;;;2.90;99.90;;;;;;5054433;28;20262;-65
2023/12/01 11:09:59;;;;;;;53.47;25.67;;;2.90;99.90;;;;;;5054697;28;20365;-66
2023/12/01 11:12:44;;;;;;;52.97;25.67;;;2.90;99.90;;;;;;5052268;28;20117;-67
2023/12/01 11:15:28;;;;;;;53.92;25.63;;;2.90;99.90;;;;;;5054591;28;20021;-67
2023/12/01 11:17:55;;;;;;;57.78;26.52;;;2.90;99.90;;;;;;5054319;28;20032;-67
2023/12/01 11:20:30;;;;;;;55.72;26.80;;;2.90;99.90;;;;;;5054627;28;20036;-67
2023/12/01 11:23:28;;;;;;;52.08;25.60;;;2.90;99.90;;;;;;5053335;28;20033;-65
2023/12/01 11:25:56;;;;;;;53.40;25.75;;;2.90;99.90;;;;;;5054034;28;20031;-67
2023/12/01 11:31:14;;;;;;;53.75;25.05;;;2.90;99.90;;;;;;5054632;28;20350;-65
2023/12/01 11:33:43;;;;;;;52.20;25.95;;;2.90;99.90;;;;;;5054134;28;20033;-67
2023/12/01 11:36:27;;;;;;;50.65;24.20;;;2.80;99.90;;;;;;5054174;28;20044;-66
2023/12/01 11:39:17;;;;;;;54.00;25.20;;;2.90;99.90;;;;;;5053998;28;20025;-66
2023/12/01 11:41:46;;;;;;;55.40;26.25;;;2.90;99.90;;;;;;5053318;28;20036;-65
2023/12/01 11:44:15;;;;;;;47.65;24.08;;;2.90;99.90;;;;;;5053845;28;20028;-66
2023/12/01 11:46:41;;;;;;;47.78;23.63;;;2.80;99.90;;;;;;5053721;28;20040;-67
2023/12/01 11:49:11;;;;;;;48.85;24.35;;;2.80;99.90;;;;;;5053839;28;20535;-65
2023/12/01 11:51:37;;;;;;;49.25;24.35;;;2.80;99.90;;;;;;5053746;28;20035;-66
2023/12/01 11:54:03;;;;;;;53.15;26.20;;;2.80;99.90;;;;;;5053823;28;20382;-66
2023/12/01 11:56:31;;;;;;;48.45;24.13;;;2.80;99.90;;;;;;5053777;28;20033;-66
2023/12/01 11:58:57;;;;;;;50.47;24.80;;;2.80;99.90;;;;;;5053098;28;20063;-66
2023/12/01 12:01:24;;;;;;;53.03;23.95;;;2.80;99.90;;;;;;5054022;28;20053;-66
2023/12/01 12:03:57;;;;;;;46.17;23.60;;;2.90;99.90;;;;;;5053375;28;20051;-66
2023/12/01 12:06:24;;;;;;;46.95;24.30;;;2.90;99.90;;;;;;5054066;28;20041;-67
2023/12/01 12:08:51;;;;;;;47.55;23.58;;;2.90;99.90;;;;;;5053012;28;20028;-67
2023/12/01 12:11:17;;;;;;;46.75;23.60;;;2.90;99.90;;;;;;5053729;28;20469;-67
2023/12/01 12:13:43;;;;;;;47.78;23.38;;;2.90;99.90;;;;;;5052974;28;20029;-67
2023/12/01 12:16:10;;;;;;;39.30;21.63;;;2.80;99.90;;;;;;5053550;28;20072;-67
2023/12/01 12:18:36;;;;;;;41.63;22.70;;;2.80;99.90;;;;;;5053583;28;20068;-67
2023/12/01 12:21:04;;;;;;;47.10;22.77;;;2.80;99.90;;;;;;5053379;28;20549;-67
2023/12/01 12:23:30;;;;;;;43.88;22.23;;;2.80;99.90;;;;;;5053617;28;20359;-66
2023/12/01 12:26:20;;;;;;;47.15;24.20;;;2.80;99.90;;;;;;5053051;28;20025;-65
2023/12/01 12:28:52;;;;;;;47.42;24.15;;;2.80;99.90;;;;;;5053026;28;20029;-67
2023/12/01 12:31:27;;;;;;;50.42;25.30;;;2.70;99.90;;;;;;5053807;28;20063;-66
2023/12/01 12:33:57;;;;;;;53.25;26.02;;;2.70;99.90;;;;;;5052844;28;20021;-65
2023/12/01 12:36:26;;;;;;;50.42;26.80;;;2.70;99.90;;;;;;5053154;28;20037;-66
2023/12/01 12:38:53;;;;;;;52.15;27.67;;;2.70;99.90;;;;;;5052800;28;20018;-65
2023/12/01 12:41:25;;;;;;;54.10;29.52;;;2.70;99.90;;;;;;5052242;28;20036;-66
2023/12/01 12:43:58;;;;;;;59.10;29.50;;;2.70;99.90;;;;;;5052542;28;20063;-65